Latest Weather Observations for Esperance Harbour

IDW60801

Issued at 2:02 am WST Sunday 26 April 2015 (issued every 30 minutes, with the page automatically refreshed every 10 minutes)

About weather observations | Map of weather stations | Latest weather observations for WA | Other Formats
Station Details ID: 109504 Name: ESPERANCE NTC AWS Lat: -33.87 Lon: 121.90 Height: 0.0 m
Data from the previous 72 hours. | See also: Recent months for locations in Western Australia
Date/Time
WST
Temp
°C
App
Temp
°C
Dew
Point
Rel
Hum
%
Delta-T
°C
Wind Press
QNH
hPa
Press
MSL
hPa
Rain
since 9 am
mm
Dir
 
Spd
km/h
Gust
km/h
Spd
kts
Gust
kts
26/02:00am 11.7 - - - - - - - - - 1028.4 1028.3 -
26/01:30am 11.6 - - - - - - - - - 1028.3 1028.2 -
26/01:00am 12.5 - - - - - - - - - 1028.4 1028.3 -
26/12:30am 13.6 - - - - - - - - - 1028.2 1028.1 -
26/12:00am 12.8 - - - - - - - - - 1028.2 1028.1 -
 
Date/Time
WST
Temp
°C
App
Temp
°C
Dew
Point
Rel
Hum
%
Delta-T
°C
Wind Press
QNH
hPa
Press
MSL
hPa
Rain
since 9 am
mm
Dir
 
Spd
km/h
Gust
km/h
Spd
kts
Gust
kts
25/11:30pm 13.1 - - - - - - - - - 1028.5 1028.4 -
25/11:00pm 13.6 - - - - - - - - - 1028.6 1028.5 -
25/10:30pm 13.5 - - - - - - - - - 1028.7 1028.6 -
25/10:00pm 14.0 - - - - - - - - - 1028.8 1028.7 -
25/09:30pm 14.7 - - - - - - - - - 1028.9 1028.8 -
25/09:00pm 15.6 - - - - - - - - - 1028.8 1028.7 -
25/08:30pm 16.3 - - - - - - - - - 1028.6 1028.5 -
25/08:00pm 16.4 - - - - - - - - - 1028.4 1028.3 -
25/07:30pm 16.7 - - - - - - - - - 1028.4 1028.3 -
25/07:00pm 16.8 - - - - - - - - - 1028.1 1028.0 -
25/06:30pm 17.0 - - - - - - - - - 1028.0 1027.9 -
25/06:00pm 16.8 - - - - - - - - - 1027.7 1027.6 -
25/05:30pm 16.8 - - - - - - - - - 1027.5 1027.4 -
25/05:00pm 16.8 - - - - - - - - - 1027.4 1027.3 -
25/04:30pm 17.0 - - - - - - - - - 1027.3 1027.2 -
25/04:00pm 17.3 - - - - - - - - - 1027.3 1027.2 -
25/03:30pm 17.0 - - - - - - - - - 1027.3 1027.2 -
25/03:00pm 17.8 - - - - - - - - - 1027.2 1027.1 -
25/02:30pm 17.4 - - - - - - - - - 1027.2 1027.1 -
25/02:00pm 17.6 - - - - - - - - - 1027.2 1027.1 -
25/01:30pm 17.4 - - - - - - - - - 1027.2 1027.1 -
25/01:00pm 16.8 - - - - - - - - - 1027.4 1027.3 -
25/12:30pm 16.5 - - - - - - - - - 1027.6 1027.5 -
25/12:00pm 16.5 - - - - - - - - - 1028.0 1027.9 -
25/11:30am 15.9 - - - - - - - - - 1028.1 1028.0 -
25/11:00am 15.7 - - - - - - - - - 1028.7 1028.6 -
25/10:30am 15.0 - - - - - - - - - 1028.8 1028.7 -
25/10:00am 14.8 - - - - - - - - - 1028.8 1028.7 -
25/09:30am 13.9 - - - - - - - - - 1028.8 1028.7 -
25/09:00am 13.4 - - - - - - - - - 1029.0 1028.9 -
25/08:30am 12.6 - - - - - - - - - 1029.0 1028.9 -
25/08:00am 12.2 - - - - - - - - - 1029.2 1029.1 -
25/07:30am 11.8 - - - - - - - - - 1028.5 1028.4 -
25/07:00am 11.4 - - - - - - - - - 1028.1 1028.0 -
25/06:30am 11.2 - - - - - - - - - 1027.8 1027.7 -
25/06:00am 11.3 - - - - - - - - - 1027.8 1027.7 -
25/05:30am 11.4 - - - - - - - - - 1027.7 1027.6 -
25/05:00am 11.2 - - - - - - - - - 1027.4 1027.3 -
25/04:30am 11.7 - - - - - - - - - 1027.4 1027.3 -
25/04:00am 13.2 - - - - - - - - - 1027.3 1027.2 -
25/03:30am 15.0 - - - - - - - - - 1027.3 1027.2 -
25/03:00am 14.7 - - - - - - - - - 1027.3 1027.2 -
25/02:30am 14.5 - - - - - - - - - 1027.5 1027.4 -
25/02:00am 14.6 - - - - - - - - - 1027.7 1027.6 -
25/01:30am 14.2 - - - - - - - - - 1027.8 1027.7 -
25/01:00am 13.4 - - - - - - - - - 1027.8 1027.7 -
25/12:30am 13.7 - - - - - - - - - 1027.8 1027.7 -
25/12:00am 13.6 - - - - - - - - - 1028.0 1027.9 -
 
Date/Time
WST
Temp
°C
App
Temp
°C
Dew
Point
Rel
Hum
%
Delta-T
°C
Wind Press
QNH
hPa
Press
MSL
hPa
Rain
since 9 am
mm
Dir
 
Spd
km/h
Gust
km/h
Spd
kts
Gust
kts
24/11:30pm 14.6 - - - - - - - - - 1028.0 1027.9 -
24/11:00pm 14.6 - - - - - - - - - 1028.3 1028.2 -
24/10:30pm 14.6 - - - - - - - - - 1028.6 1028.5 -
24/10:00pm 14.6 - - - - - - - - - 1028.7 1028.6 -
24/09:30pm 15.6 - - - - - - - - - 1028.5 1028.4 -
24/09:00pm 16.0 - - - - - - - - - 1028.4 1028.3 -
24/08:30pm 15.9 - - - - - - - - - 1028.4 1028.3 -
24/08:00pm 15.5 - - - - - - - - - 1028.4 1028.3 -
24/07:30pm 15.7 - - - - - - - - - 1028.4 1028.3 -
24/07:00pm 16.2 - - - - - - - - - 1028.4 1028.3 -
24/06:30pm 16.4 - - - - - - - - - 1028.3 1028.2 -
24/06:00pm 16.1 - - - - - - - - - 1028.2 1028.1 -
24/05:30pm 15.9 - - - - - - - - - 1028.2 1028.1 -
24/05:00pm 15.9 - - - - - - - - - 1027.9 1027.8 -
24/04:30pm 16.0 - - - - - - - - - 1027.8 1027.7 -
24/04:00pm 15.6 - - - - - - - - - 1027.9 1027.8 -
24/03:30pm 15.8 - - - - - - - - - 1027.9 1027.8 -
24/03:00pm 15.4 - - - - - - - - - 1028.1 1028.0 -
24/02:30pm 14.6 - - - - - - - - - 1028.3 1028.2 -
24/02:00pm 16.9 - - - - - - - - - 1028.0 1027.9 -
24/01:30pm 16.3 - - - - - - - - - 1028.3 1028.2 -
24/01:00pm 16.0 - - - - - - - - - 1028.6 1028.5 -
24/12:30pm 16.1 - - - - - - - - - 1028.8 1028.7 -
24/12:00pm 16.3 - - - - - - - - - 1029.1 1029.0 -
24/11:30am 15.8 - - - - - - - - - 1029.3 1029.2 -
24/11:00am 15.1 - - - - - - - - - 1029.4 1029.3 -
24/10:30am 16.1 - - - - - - - - - 1029.5 1029.4 -
24/10:00am 14.6 - - - - - - - - - 1029.5 1029.4 -
24/09:30am 15.3 - - - - - - - - - 1029.3 1029.2 -
24/09:00am 14.8 - - - - - - - - - 1029.4 1029.3 -
24/08:30am 14.0 - - - - - - - - - 1029.2 1029.1 -
24/08:00am 14.5 - - - - - - - - - 1029.0 1028.9 -
24/07:30am 14.2 - - - - - - - - - 1028.8 1028.7 -
24/07:00am 14.9 - - - - - - - - - 1028.5 1028.4 -
24/06:30am 14.4 - - - - - - - - - 1028.0 1027.9 -
24/06:00am 14.2 - - - - - - - - - 1027.7 1027.6 -
24/05:30am 14.5 - - - - - - - - - 1027.6 1027.5 -
24/05:00am 14.6 - - - - - - - - - 1027.4 1027.3 -
24/04:30am 14.5 - - - - - - - - - 1027.3 1027.2 -
24/04:00am 13.6 - - - - - - - - - 1027.2 1027.1 -
24/03:30am 14.3 - - - - - - - - - 1026.9 1026.8 -
24/03:00am 14.4 - - - - - - - - - 1026.9 1026.8 -
24/02:30am 14.5 - - - - - - - - - 1027.2 1027.1 -
24/02:00am 14.5 - - - - - - - - - 1027.1 1027.0 -
24/01:30am 14.5 - - - - - - - - - 1027.3 1027.2 -
24/01:00am 14.6 - - - - - - - - - 1027.3 1027.2 -
24/12:30am 14.6 - - - - - - - - - 1027.4 1027.3 -
24/12:00am 14.8 - - - - - - - - - 1027.4 1027.3 -
 
Date/Time
WST
Temp
°C
App
Temp
°C
Dew
Point
Rel
Hum
%
Delta-T
°C
Wind Press
QNH
hPa
Press
MSL
hPa
Rain
since 9 am
mm
Dir
 
Spd
km/h
Gust
km/h
Spd
kts
Gust
kts
23/11:30pm 14.9 - - - - - - - - - 1027.3 1027.2 -
23/11:00pm 14.8 - - - - - - - - - 1027.4 1027.3 -
23/10:30pm 14.9 - - - - - - - - - 1027.4 1027.3 -
23/10:00pm 14.9 - - - - - - - - - 1027.2 1027.1 -
23/09:30pm 15.1 - - - - - - - - - 1027.4 1027.3 -
23/09:00pm 15.5 - - - - - - - - - 1027.2 1027.1 -
23/08:30pm 15.5 - - - - - - - - - 1026.9 1026.8 -
23/08:00pm 15.6 - - - - - - - - - 1026.8 1026.7 -
23/07:30pm 15.9 - - - - - - - - - 1026.5 1026.4 -
23/07:00pm 15.9 - - - - - - - - - 1026.1 1026.0 -
23/06:30pm 16.6 - - - - - - - - - 1025.8 1025.7 -
23/06:00pm 16.3 - - - - - - - - - 1025.2 1025.1 -
23/05:30pm 16.1 - - - - - - - - - 1025.0 1024.9 -
23/05:00pm 16.0 - - - - - - - - - 1024.7 1024.6 -
23/04:30pm 16.7 - - - - - - - - - 1024.4 1024.3 -
23/04:00pm 17.6 - - - - - - - - - 1024.3 1024.2 -
23/03:30pm 17.5 - - - - - - - - - 1024.4 1024.3 -
23/03:00pm 17.6 - - - - - - - - - 1024.1 1024.0 -
23/02:30pm 17.5 - - - - - - - - - 1023.8 1023.7 -
23/02:00pm 17.4 - - - - - - - - - 1023.6 1023.5 -
23/01:30pm 18.0 - - - - - - - - - 1023.3 1023.2 -
23/01:00pm 18.2 - - - - - - - - - 1023.2 1023.1 -
23/12:30pm 17.9 - - - - - - - - - 1023.4 1023.3 -
23/12:00pm 18.2 - - - - - - - - - 1023.3 1023.2 -
23/11:30am 18.3 - - - - - - - - - 1023.3 1023.2 -
23/11:00am 18.9 - - - - - - - - - 1023.4 1023.3 -
23/10:30am 18.5 - - - - - - - - - 1023.4 1023.3 -
23/10:00am 18.5 - - - - - - - - - 1023.1 1023.0 -
23/09:30am 19.1 - - - - - - - - - 1022.9 1022.8 -
23/09:00am 19.0 - - - - - - - - - 1022.9 1022.8 -
23/08:30am 18.4 - - - - - - - - - 1022.6 1022.5 -
23/08:00am 18.3 - - - - - - - - - 1022.3 1022.2 -
23/07:30am 17.9 - - - - - - - - - 1021.9 1021.8 -
23/07:00am 17.7 - - - - - - - - - 1021.5 1021.4 -
23/06:30am 17.1 - - - - - - - - - 1021.2 1021.1 -
23/06:00am 14.2 - - - - - - - - - 1021.0 1020.9 -
23/05:30am 12.8 - - - - - - - - - 1020.9 1020.8 -
23/05:00am 12.5 - - - - - - - - - 1020.6 1020.6 -
23/04:30am 12.0 - - - - - - - - - 1020.4 1020.4 -
23/04:00am 12.1 - - - - - - - - - 1020.1 1020.1 -
23/03:30am 11.4 - - - - - - - - - 1019.9 1019.9 -
23/03:00am 11.2 - - - - - - - - - 1019.8 1019.8 -
23/02:30am 11.1 - - - - - - - - - 1019.9 1019.9 -

Other Formats:

Comma delimited format used in spreadsheet applications
http://www.bom.gov.au/fwo/IDW60801/IDW60801.95648.axf

JavaScript Object Notation format (JSON) in row-major order
http://www.bom.gov.au/fwo/IDW60801/IDW60801.95648.json